RKPK

Gimhae International Airport

Busan, South Korea
METAR RKPK 152100Z 35004KT CAVOK 08/06 Q1022 NOSIG
Observed Flight Rules
Nov-15 @ 21:00 UTC (23 minutes ago) Visual Flight Rules
Wind Visibility Clouds
350° at 4 knots 10,000+ meters
  • Clear skies
Temperatures Readings
Current 8°C / 46°F
Dewpoint 6°C / 43°F
Humidity 87%
Altimeter 30.18" Hg
Pressure 1022 hPa
Elevation 15
METAR RKPK 152100Z 35004KT CAVOK 08/06 Q1022 NOSIG
Observed Flight Rules
Nov-15 @ 21:00 UTC
(23 minutes ago)
VFR
Wind Visibility
350° at 4 knots 10,000+ meters
Clouds
  • Clear skies
Temperature Dewpoint
8°C / 46°F 6°C / 43°F
Humidity Altimeter Pressure
87% 30.18" Hg 1022 hPa